createdAt,value
2023-08-17T00:00:11.724Z,19.55
2023-08-17T00:01:14.712Z,19.54
2023-08-17T00:02:17.794Z,19.52
2023-08-17T00:03:20.915Z,19.52
2023-08-17T00:04:24.020Z,19.52
2023-08-17T00:05:27.945Z,19.52
2023-08-17T00:06:31.197Z,19.52
2023-08-17T00:07:34.782Z,19.52
2023-08-17T00:08:37.681Z,19.50
2023-08-17T00:09:41.133Z,19.50
2023-08-17T00:10:44.007Z,19.51
2023-08-17T00:11:46.988Z,19.49
2023-08-17T00:12:49.912Z,19.47
2023-08-17T00:13:52.983Z,19.44
2023-08-17T00:14:56.033Z,19.43
2023-08-17T00:15:59.159Z,19.42
2023-08-17T00:17:02.205Z,19.41
2023-08-17T00:18:05.460Z,19.40
2023-08-17T00:19:08.953Z,19.39
2023-08-17T00:20:12.612Z,19.38
2023-08-17T00:21:15.561Z,19.37
2023-08-17T00:22:18.519Z,19.38
2023-08-17T00:23:22.299Z,19.40
2023-08-17T00:24:25.317Z,19.39
2023-08-17T00:25:28.165Z,19.37
2023-08-17T00:26:31.242Z,19.38
2023-08-17T00:27:34.664Z,19.38
2023-08-17T00:28:38.323Z,19.36
2023-08-17T00:29:41.149Z,19.36
2023-08-17T00:30:44.263Z,19.33
2023-08-17T00:31:47.150Z,19.33
2023-08-17T00:32:50.064Z,19.32
2023-08-17T00:33:52.872Z,19.31
2023-08-17T00:34:55.767Z,19.30
2023-08-17T00:35:58.681Z,19.29
2023-08-17T00:37:01.641Z,19.28
2023-08-17T00:38:04.823Z,19.29
2023-08-17T00:39:08.033Z,19.28
2023-08-17T00:40:11.611Z,19.28
2023-08-17T00:41:14.715Z,19.28
2023-08-17T00:42:17.773Z,19.26
2023-08-17T00:43:20.751Z,19.28
2023-08-17T00:44:23.732Z,19.27
2023-08-17T00:45:28.157Z,19.29
2023-08-17T00:46:31.842Z,19.29
2023-08-17T00:47:34.970Z,19.29
2023-08-17T00:48:37.925Z,19.29
2023-08-17T00:49:41.252Z,19.29
2023-08-17T00:50:46.922Z,19.28
2023-08-17T00:51:49.927Z,19.29
2023-08-17T00:52:54.477Z,19.29
2023-08-17T00:54:00.259Z,19.28
2023-08-17T00:55:04.230Z,19.26
2023-08-17T00:56:07.580Z,19.26
2023-08-17T00:57:11.164Z,19.26
2023-08-17T00:58:15.352Z,19.29
2023-08-17T00:59:18.516Z,19.28
2023-08-17T01:00:21.729Z,19.28
2023-08-17T01:01:25.382Z,19.26
2023-08-17T01:02:28.657Z,19.28
2023-08-17T01:03:32.468Z,19.26
2023-08-17T01:04:35.512Z,19.28
2023-08-17T01:05:38.976Z,19.30
2023-08-17T01:06:41.960Z,19.34
2023-08-17T01:07:44.872Z,19.32
2023-08-17T01:08:48.406Z,19.29
2023-08-17T01:09:51.591Z,19.28
2023-08-17T01:11:20.392Z,19.27
2023-08-17T01:12:31.654Z,19.28
2023-08-17T01:13:46.767Z,19.26
2023-08-17T01:14:55.750Z,19.27
2023-08-17T01:16:01.504Z,19.26
2023-08-17T01:17:39.861Z,19.26
2023-08-17T01:18:45.006Z,19.24
2023-08-17T01:19:49.146Z,19.29
2023-08-17T01:20:54.772Z,19.29
2023-08-17T01:22:06.851Z,19.27
2023-08-17T01:23:10.601Z,19.25
2023-08-17T01:24:13.621Z,19.26
2023-08-17T01:25:16.642Z,19.24
2023-08-17T01:26:19.855Z,19.21
2023-08-17T01:27:23.063Z,19.19
2023-08-17T01:28:26.744Z,19.17
2023-08-17T01:29:29.978Z,19.16
2023-08-17T01:30:51.154Z,19.16
2023-08-17T01:32:31.291Z,19.19
2023-08-17T01:33:49.515Z,19.15
2023-08-17T01:35:03.043Z,19.16
2023-08-17T01:36:19.701Z,19.17
2023-08-17T01:37:25.135Z,19.15
2023-08-17T01:38:31.209Z,19.23
2023-08-17T01:39:41.056Z,19.20
2023-08-17T01:40:46.276Z,19.18
2023-08-17T01:41:49.697Z,19.17
2023-08-17T01:42:53.388Z,19.17
2023-08-17T01:43:58.401Z,19.15
2023-08-17T01:45:02.027Z,19.13
2023-08-17T01:46:05.189Z,19.12
2023-08-17T01:47:08.376Z,19.13
2023-08-17T01:48:11.454Z,19.12
2023-08-17T01:49:14.571Z,19.14
2023-08-17T01:50:17.589Z,19.15
2023-08-17T01:51:21.325Z,19.14
2023-08-17T01:52:27.801Z,19.17
2023-08-17T01:53:30.768Z,19.18
2023-08-17T01:54:34.139Z,19.25
2023-08-17T01:55:37.167Z,19.25
2023-08-17T01:56:40.263Z,19.22
2023-08-17T01:57:43.287Z,19.21
2023-08-17T01:58:46.379Z,19.22
2023-08-17T01:59:49.394Z,19.20
2023-08-17T02:00:52.491Z,19.20
2023-08-17T02:01:55.535Z,19.20
2023-08-17T02:02:58.484Z,19.19
2023-08-17T02:04:03.580Z,19.19
2023-08-17T02:05:06.901Z,19.22
2023-08-17T02:06:09.891Z,19.29
2023-08-17T02:07:12.876Z,19.28
2023-08-17T02:08:15.888Z,19.25
2023-08-17T02:09:18.881Z,19.25
2023-08-17T02:10:21.856Z,19.24
2023-08-17T02:11:24.807Z,19.26
2023-08-17T02:12:28.716Z,19.32
2023-08-17T02:13:31.901Z,19.31
2023-08-17T02:14:34.864Z,19.34
2023-08-17T02:15:41.415Z,19.33
2023-08-17T02:16:44.747Z,19.30
2023-08-17T02:17:47.695Z,19.30
2023-08-17T02:18:50.555Z,19.38
2023-08-17T02:19:53.591Z,19.32
2023-08-17T02:20:56.557Z,19.31
2023-08-17T02:21:59.874Z,19.30
2023-08-17T02:23:03.337Z,19.26
2023-08-17T02:24:06.777Z,19.31
2023-08-17T02:25:10.354Z,19.26
2023-08-17T02:26:13.317Z,19.25
2023-08-17T02:27:16.212Z,19.23
2023-08-17T02:28:19.258Z,19.26
2023-08-17T02:29:22.372Z,19.26
2023-08-17T02:30:25.306Z,19.23
2023-08-17T02:31:28.161Z,19.21
2023-08-17T02:32:31.136Z,19.23
2023-08-17T02:33:35.039Z,19.24
2023-08-17T02:34:37.890Z,19.21
2023-08-17T02:35:40.858Z,19.20
2023-08-17T02:36:43.839Z,19.19
2023-08-17T02:37:46.768Z,19.19
2023-08-17T02:38:49.723Z,19.20
2023-08-17T02:39:52.699Z,19.21
2023-08-17T02:40:55.639Z,19.15
2023-08-17T02:41:58.720Z,19.14
2023-08-17T02:43:01.700Z,19.14
2023-08-17T02:44:05.117Z,19.12
2023-08-17T02:45:09.796Z,19.11
2023-08-17T02:46:12.750Z,19.09
2023-08-17T02:47:15.916Z,19.07
2023-08-17T02:48:21.713Z,19.07
2023-08-17T02:49:24.613Z,19.07
2023-08-17T02:50:27.472Z,19.04
2023-08-17T02:51:30.367Z,19.02
2023-08-17T02:52:33.220Z,19.02
2023-08-17T02:53:36.173Z,19.01
2023-08-17T02:54:39.102Z,19.02
2023-08-17T02:55:42.100Z,19.01
2023-08-17T02:56:44.963Z,19.00
2023-08-17T02:57:47.806Z,19.01
2023-08-17T02:58:50.886Z,18.98
2023-08-17T02:59:53.799Z,18.97
2023-08-17T03:00:56.786Z,18.98
2023-08-17T03:01:59.635Z,18.95
2023-08-17T03:03:02.912Z,18.95
2023-08-17T03:04:06.192Z,18.93
2023-08-17T03:05:09.260Z,18.93
2023-08-17T03:06:12.230Z,18.95
2023-08-17T03:07:15.176Z,18.95
2023-08-17T03:08:18.034Z,18.94
2023-08-17T03:09:20.845Z,18.95
2023-08-17T03:10:24.317Z,18.93
2023-08-17T03:11:27.361Z,18.89
2023-08-17T03:12:30.627Z,18.88
2023-08-17T03:13:33.574Z,18.91
2023-08-17T03:14:36.967Z,18.93
2023-08-17T03:15:41.528Z,18.95
2023-08-17T03:16:44.611Z,18.92
2023-08-17T03:17:47.722Z,18.89
2023-08-17T03:18:50.626Z,18.93
2023-08-17T03:19:53.598Z,18.93
2023-08-17T03:20:56.670Z,18.90
2023-08-17T03:21:59.666Z,18.89
2023-08-17T03:23:02.634Z,18.87
2023-08-17T03:24:06.432Z,18.87
2023-08-17T03:25:09.963Z,18.85
2023-08-17T03:26:12.920Z,18.83
2023-08-17T03:27:15.928Z,18.82
2023-08-17T03:28:18.934Z,18.83
2023-08-17T03:29:21.869Z,18.82
2023-08-17T03:30:24.895Z,18.81
2023-08-17T03:31:27.894Z,18.82
2023-08-17T03:32:30.862Z,18.82
2023-08-17T03:33:33.887Z,18.82
2023-08-17T03:34:36.680Z,18.82
2023-08-17T03:35:39.560Z,18.80
2023-08-17T03:36:42.676Z,18.81
2023-08-17T03:37:46.590Z,18.78
2023-08-17T03:38:49.472Z,18.81
2023-08-17T03:39:52.549Z,18.81
2023-08-17T03:40:56.043Z,18.79
2023-08-17T03:41:58.967Z,18.80
2023-08-17T03:43:01.835Z,18.80
2023-08-17T03:44:07.482Z,18.77
2023-08-17T03:45:10.702Z,18.78
2023-08-17T03:46:13.639Z,18.77
2023-08-17T03:47:16.671Z,18.76
2023-08-17T03:48:19.708Z,18.75
2023-08-17T03:49:23.267Z,18.76
2023-08-17T03:50:29.429Z,18.76
2023-08-17T03:51:32.450Z,18.78
2023-08-17T03:52:35.442Z,18.78
2023-08-17T03:53:38.316Z,18.77
2023-08-17T03:54:41.184Z,18.77
2023-08-17T03:55:50.808Z,18.76
2023-08-17T03:56:53.667Z,18.77
2023-08-17T03:57:56.701Z,18.77
2023-08-17T03:58:59.711Z,18.77
2023-08-17T04:00:02.737Z,18.77
2023-08-17T04:01:08.064Z,18.76
2023-08-17T04:02:11.006Z,18.73
2023-08-17T04:03:13.873Z,18.71
2023-08-17T04:04:16.829Z,18.73
2023-08-17T04:05:19.826Z,18.71
2023-08-17T04:06:22.847Z,18.69
2023-08-17T04:07:26.307Z,18.68
2023-08-17T04:08:29.468Z,18.69
2023-08-17T04:09:35.122Z,18.69
2023-08-17T04:10:38.188Z,18.67
2023-08-17T04:11:41.211Z,18.64
2023-08-17T04:12:44.343Z,18.64
2023-08-17T04:13:47.201Z,18.65
2023-08-17T04:14:50.181Z,18.66
2023-08-17T04:15:54.327Z,18.64
2023-08-17T04:16:58.072Z,18.63
2023-08-17T04:18:01.081Z,18.63
2023-08-17T04:19:04.292Z,18.62
2023-08-17T04:20:08.067Z,18.66
2023-08-17T04:21:11.027Z,18.67
2023-08-17T04:22:14.100Z,18.68
2023-08-17T04:23:17.164Z,18.69
2023-08-17T04:24:20.114Z,18.71
2023-08-17T04:25:23.108Z,18.70
2023-08-17T04:26:26.402Z,18.70
2023-08-17T04:27:29.649Z,18.71
2023-08-17T04:28:32.637Z,18.72
2023-08-17T04:29:35.639Z,18.72
2023-08-17T04:30:39.739Z,18.76
2023-08-17T04:31:42.906Z,18.75
2023-08-17T04:32:46.240Z,18.76
2023-08-17T04:33:49.375Z,18.77
2023-08-17T04:34:54.724Z,18.81
2023-08-17T04:35:57.888Z,18.82
2023-08-17T04:37:00.855Z,18.84
2023-08-17T04:38:03.890Z,18.85
2023-08-17T04:39:06.954Z,18.86
2023-08-17T04:40:11.379Z,18.88
2023-08-17T04:41:14.415Z,18.89
2023-08-17T04:42:17.503Z,18.89
2023-08-17T04:43:20.315Z,18.91
2023-08-17T04:44:23.252Z,18.92
2023-08-17T04:45:26.364Z,18.96
2023-08-17T04:46:29.254Z,18.97
2023-08-17T04:47:32.378Z,18.98
2023-08-17T04:48:35.630Z,18.95
2023-08-17T04:49:38.401Z,18.95
2023-08-17T04:50:41.448Z,18.94
2023-08-17T04:51:44.263Z,18.94
2023-08-17T04:52:47.306Z,18.93
2023-08-17T04:53:50.190Z,18.93
2023-08-17T04:54:53.085Z,18.95
2023-08-17T04:55:56.120Z,18.95
2023-08-17T04:56:58.933Z,18.95
2023-08-17T04:58:01.759Z,18.95
2023-08-17T04:59:04.720Z,18.94
2023-08-17T05:00:11.478Z,18.93
2023-08-17T05:01:14.533Z,18.94
2023-08-17T05:02:17.660Z,18.96
2023-08-17T05:03:32.122Z,18.96
2023-08-17T05:04:37.111Z,18.98
2023-08-17T05:05:40.125Z,19.01
2023-08-17T05:06:44.375Z,19.01
2023-08-17T05:07:47.465Z,19.02
2023-08-17T05:08:50.655Z,19.05
2023-08-17T05:09:53.738Z,19.06
2023-08-17T05:10:56.899Z,19.09
2023-08-17T05:11:59.802Z,19.10
2023-08-17T05:13:02.969Z,19.12
2023-08-17T05:14:05.921Z,19.13
2023-08-17T05:15:11.349Z,19.12
2023-08-17T05:16:14.685Z,19.13
2023-08-17T05:17:17.621Z,19.14
2023-08-17T05:18:20.478Z,19.18
2023-08-17T05:19:23.495Z,19.21
2023-08-17T05:20:27.020Z,19.22
2023-08-17T05:21:30.332Z,19.25
2023-08-17T05:22:33.419Z,19.28
2023-08-17T05:23:36.400Z,19.30
2023-08-17T05:24:40.077Z,19.31
2023-08-17T05:25:43.054Z,19.35
2023-08-17T05:26:46.190Z,19.36
2023-08-17T05:27:50.470Z,19.40
2023-08-17T05:28:53.631Z,19.43
2023-08-17T05:29:56.724Z,19.49
2023-08-17T05:31:08.075Z,19.51
2023-08-17T05:32:11.196Z,19.59
2023-08-17T05:33:14.305Z,19.60
2023-08-17T05:34:17.238Z,19.59
2023-08-17T05:35:20.235Z,19.61
2023-08-17T05:36:23.338Z,19.65
2023-08-17T05:37:26.520Z,19.68
2023-08-17T05:38:29.665Z,19.70
2023-08-17T05:39:33.599Z,19.76
2023-08-17T05:40:38.352Z,19.80
2023-08-17T05:41:41.372Z,19.81
2023-08-17T05:42:44.243Z,19.83
2023-08-17T05:43:47.162Z,19.87
2023-08-17T05:44:50.073Z,19.93
2023-08-17T05:45:53.508Z,19.96
2023-08-17T05:46:56.611Z,19.99
2023-08-17T05:47:59.730Z,19.98
2023-08-17T05:49:04.005Z,20.02
2023-08-17T05:50:07.641Z,20.02
2023-08-17T05:51:10.608Z,20.06
2023-08-17T05:52:14.048Z,20.11
2023-08-17T05:53:17.012Z,20.13
2023-08-17T05:54:19.945Z,20.13
2023-08-17T05:55:22.971Z,20.13
2023-08-17T05:56:25.982Z,20.19
2023-08-17T05:57:29.281Z,20.21
2023-08-17T05:58:32.237Z,20.20
2023-08-17T05:59:35.349Z,20.22
2023-08-17T06:00:38.950Z,20.24
2023-08-17T06:01:42.401Z,20.31
2023-08-17T06:02:51.239Z,20.43
2023-08-17T06:03:54.186Z,20.44
2023-08-17T06:04:57.126Z,20.48
2023-08-17T06:06:00.117Z,20.44
2023-08-17T06:07:03.142Z,20.48
2023-08-17T06:08:06.684Z,20.54
2023-08-17T06:09:10.231Z,20.60
2023-08-17T06:10:13.419Z,20.59
2023-08-17T06:11:16.390Z,20.63
2023-08-17T06:12:20.358Z,20.70
2023-08-17T06:13:23.574Z,20.80
2023-08-17T06:14:26.534Z,20.89
2023-08-17T06:15:29.503Z,20.89
2023-08-17T06:16:32.757Z,21.00
2023-08-17T06:17:35.708Z,21.01
2023-08-17T06:18:38.819Z,21.12
2023-08-17T06:19:42.098Z,21.20
2023-08-17T06:20:47.842Z,21.29
2023-08-17T06:21:50.765Z,21.36
2023-08-17T06:22:53.707Z,21.43
2023-08-17T06:23:56.622Z,21.47
2023-08-17T06:24:59.781Z,21.48
2023-08-17T06:26:02.710Z,21.57
2023-08-17T06:27:05.666Z,21.65
2023-08-17T06:28:08.670Z,21.59
2023-08-17T06:29:11.930Z,21.62
2023-08-17T06:30:15.125Z,21.68
2023-08-17T06:31:18.161Z,21.64
2023-08-17T06:32:21.207Z,21.58
2023-08-17T06:33:24.534Z,21.55
2023-08-17T06:34:27.502Z,21.55
2023-08-17T06:35:30.486Z,21.53
2023-08-17T06:36:33.990Z,21.50
2023-08-17T06:37:37.152Z,21.48
2023-08-17T06:38:40.141Z,21.46
2023-08-17T06:39:43.111Z,21.42
2023-08-17T06:40:47.253Z,21.37
2023-08-17T06:41:50.126Z,21.33
2023-08-17T06:42:55.698Z,21.27
2023-08-17T06:43:58.684Z,21.28
2023-08-17T06:45:01.763Z,21.29
2023-08-17T06:46:05.065Z,21.20
2023-08-17T06:47:08.045Z,21.23
2023-08-17T06:48:10.874Z,21.21
2023-08-17T06:49:14.094Z,21.19
2023-08-17T06:50:17.137Z,21.22
2023-08-17T06:51:20.187Z,21.25
2023-08-17T06:52:23.235Z,21.28
2023-08-17T06:53:26.136Z,21.26
2023-08-17T06:54:29.104Z,21.24
2023-08-17T06:55:32.281Z,21.37
2023-08-17T06:56:35.304Z,21.33
2023-08-17T06:57:38.369Z,21.46
2023-08-17T06:58:41.376Z,21.46
2023-08-17T06:59:47.278Z,21.48
2023-08-17T07:00:50.163Z,21.46
2023-08-17T07:01:53.223Z,21.49
2023-08-17T07:02:59.620Z,21.54
2023-08-17T07:04:04.150Z,21.55
2023-08-17T07:05:07.302Z,21.57
2023-08-17T07:06:11.230Z,21.61
2023-08-17T07:07:15.499Z,21.68
2023-08-17T07:08:18.372Z,21.70
2023-08-17T07:09:22.365Z,21.75
2023-08-17T07:10:25.364Z,21.78
2023-08-17T07:11:28.319Z,21.78
2023-08-17T07:12:31.326Z,21.78
2023-08-17T07:13:34.647Z,21.78
2023-08-17T07:14:38.609Z,21.77
2023-08-17T07:15:41.754Z,21.83
2023-08-17T07:16:44.737Z,21.83
2023-08-17T07:17:47.786Z,21.86
2023-08-17T07:18:50.993Z,21.83
2023-08-17T07:20:14.727Z,21.84
2023-08-17T07:21:17.136Z,21.88
2023-08-17T07:22:19.958Z,21.93
2023-08-17T07:23:22.958Z,21.97
2023-08-17T07:24:25.705Z,22.00
2023-08-17T07:25:28.717Z,22.02
2023-08-17T07:26:31.582Z,22.02
2023-08-17T07:27:34.650Z,22.02
2023-08-17T07:28:37.661Z,22.06
2023-08-17T07:29:40.689Z,22.06
2023-08-17T07:30:43.827Z,22.06
2023-08-17T07:31:46.928Z,22.05
2023-08-17T07:32:50.035Z,22.04
2023-08-17T07:33:53.306Z,22.02
2023-08-17T07:34:56.227Z,22.16
2023-08-17T07:35:59.684Z,22.14
2023-08-17T07:37:02.562Z,22.08
2023-08-17T07:38:09.237Z,22.13
2023-08-17T07:39:12.520Z,22.16
2023-08-17T07:40:15.508Z,22.18
2023-08-17T07:41:18.404Z,22.13
2023-08-17T07:42:21.458Z,22.18
2023-08-17T07:43:25.122Z,22.18
2023-08-17T07:44:30.258Z,22.20
2023-08-17T07:45:33.366Z,22.23
2023-08-17T07:46:36.379Z,22.23
2023-08-17T07:47:39.461Z,22.26
2023-08-17T07:48:42.497Z,22.30
2023-08-17T07:49:47.039Z,22.29
2023-08-17T07:50:52.097Z,22.26
2023-08-17T07:51:55.134Z,22.26
2023-08-17T07:52:58.170Z,22.26
2023-08-17T07:54:02.148Z,22.31
2023-08-17T07:55:06.019Z,22.32
2023-08-17T07:56:09.012Z,22.40
2023-08-17T07:57:12.026Z,22.39
2023-08-17T07:58:15.010Z,22.40
2023-08-17T07:59:18.074Z,22.42
2023-08-17T08:00:21.004Z,22.45
2023-08-17T08:01:23.983Z,22.47
2023-08-17T08:02:27.113Z,22.47
2023-08-17T08:03:30.025Z,22.50
2023-08-17T08:04:33.078Z,22.58
2023-08-17T08:05:36.064Z,22.65
2023-08-17T08:06:38.908Z,22.63
2023-08-17T08:07:43.862Z,22.63
2023-08-17T08:08:46.947Z,22.66
2023-08-17T08:09:49.992Z,22.62
2023-08-17T08:10:55.966Z,22.62
2023-08-17T08:11:58.926Z,22.69
2023-08-17T08:13:01.865Z,22.70
2023-08-17T08:14:05.519Z,22.74
2023-08-17T08:15:09.049Z,22.75
2023-08-17T08:16:12.019Z,22.75
2023-08-17T08:17:15.130Z,22.82
2023-08-17T08:18:18.811Z,22.80
2023-08-17T08:19:21.826Z,22.87
2023-08-17T08:20:24.629Z,22.83
2023-08-17T08:21:29.033Z,22.81
2023-08-17T08:22:32.078Z,22.86
2023-08-17T08:23:34.899Z,22.90
2023-08-17T08:24:38.832Z,22.95
2023-08-17T08:25:42.858Z,23.05
2023-08-17T08:26:45.677Z,23.07
2023-08-17T08:27:48.453Z,23.07
2023-08-17T08:28:51.377Z,23.19
2023-08-17T08:29:54.367Z,23.18
2023-08-17T08:31:02.768Z,23.20
2023-08-17T08:32:05.877Z,23.25
2023-08-17T08:33:08.872Z,23.29
2023-08-17T08:34:11.873Z,23.35
2023-08-17T08:35:14.870Z,23.39
2023-08-17T08:36:17.841Z,23.50
2023-08-17T08:37:20.785Z,23.54
2023-08-17T08:38:23.711Z,23.52
2023-08-17T08:39:27.756Z,23.54
2023-08-17T08:40:31.991Z,23.59
2023-08-17T08:41:35.473Z,23.59
2023-08-17T08:42:38.437Z,23.64
2023-08-17T08:43:41.368Z,23.58
2023-08-17T08:44:47.306Z,23.58
2023-08-17T08:45:52.321Z,23.56
2023-08-17T08:46:57.900Z,23.57
2023-08-17T08:48:03.156Z,23.58
2023-08-17T08:49:11.589Z,23.57
2023-08-17T08:50:20.136Z,23.60
2023-08-17T08:51:31.816Z,23.60
2023-08-17T08:52:37.147Z,23.60
2023-08-17T08:53:44.769Z,23.64
2023-08-17T08:54:51.457Z,23.64
2023-08-17T08:56:00.341Z,23.65
2023-08-17T08:57:07.733Z,23.66
2023-08-17T08:58:10.780Z,23.67
2023-08-17T08:59:13.772Z,23.69
2023-08-17T09:00:18.126Z,23.68
2023-08-17T09:01:21.209Z,23.65
2023-08-17T09:02:24.344Z,23.71
2023-08-17T09:03:28.420Z,23.76
2023-08-17T09:04:31.649Z,23.76
2023-08-17T09:05:36.109Z,23.75
2023-08-17T09:06:41.596Z,23.74
2023-08-17T09:07:45.205Z,23.80
2023-08-17T09:08:50.548Z,23.81
2023-08-17T09:09:53.987Z,23.83
2023-08-17T09:10:57.289Z,23.84
2023-08-17T09:12:00.421Z,23.83
2023-08-17T09:13:03.295Z,23.81
2023-08-17T09:14:07.945Z,23.85
2023-08-17T09:15:11.263Z,23.84
2023-08-17T09:16:14.225Z,23.83
2023-08-17T09:17:25.291Z,23.84
2023-08-17T09:18:28.296Z,23.86
2023-08-17T09:19:34.303Z,23.88
2023-08-17T09:20:49.336Z,23.91
2023-08-17T09:21:52.713Z,23.97
2023-08-17T09:22:56.110Z,24.00
2023-08-17T09:24:00.159Z,24.07
2023-08-17T09:25:03.847Z,24.11
2023-08-17T09:26:10.275Z,24.18
2023-08-17T09:27:15.306Z,24.20
2023-08-17T09:28:20.090Z,24.23
2023-08-17T09:29:24.505Z,24.27
2023-08-17T09:30:27.517Z,24.32
2023-08-17T09:31:33.817Z,24.34
2023-08-17T09:32:37.090Z,24.36
2023-08-17T09:33:45.404Z,24.40
2023-08-17T09:34:51.099Z,24.39
2023-08-17T09:35:59.406Z,24.42
2023-08-17T09:37:06.729Z,24.54
2023-08-17T09:38:10.155Z,24.55
2023-08-17T09:39:14.980Z,24.52
2023-08-17T09:40:22.261Z,24.54
2023-08-17T09:41:27.702Z,24.59
2023-08-17T09:42:32.635Z,24.65
2023-08-17T09:43:35.773Z,24.69
2023-08-17T09:44:40.258Z,24.69
2023-08-17T09:45:51.286Z,24.70
2023-08-17T09:46:57.588Z,24.79
2023-08-17T09:48:03.507Z,24.77
2023-08-17T09:49:07.276Z,24.84
2023-08-17T09:50:10.586Z,24.87
2023-08-17T09:51:17.827Z,24.93
2023-08-17T09:52:22.349Z,25.10
2023-08-17T09:53:25.861Z,25.25
2023-08-17T09:54:31.726Z,25.39
2023-08-17T09:55:35.374Z,25.52
2023-08-17T09:56:38.554Z,25.69
2023-08-17T09:57:42.833Z,25.80
2023-08-17T09:58:45.853Z,25.91
2023-08-17T09:59:53.172Z,26.09
2023-08-17T10:01:05.369Z,26.24
2023-08-17T10:02:16.875Z,26.37
2023-08-17T10:03:20.557Z,26.54
2023-08-17T10:04:25.483Z,26.64
2023-08-17T10:05:31.927Z,26.64
2023-08-17T10:06:37.399Z,26.71
2023-08-17T10:07:45.718Z,26.73
2023-08-17T10:08:51.471Z,26.77
2023-08-17T10:10:01.418Z,26.82
2023-08-17T10:11:08.296Z,26.80
2023-08-17T10:12:13.791Z,26.87
2023-08-17T10:13:41.134Z,26.96
2023-08-17T10:14:50.857Z,26.97
2023-08-17T10:16:04.772Z,27.07
2023-08-17T10:17:14.524Z,27.10
2023-08-17T10:18:36.175Z,27.10
2023-08-17T10:19:54.464Z,27.18
2023-08-17T10:21:08.781Z,27.23
2023-08-17T10:22:28.012Z,27.35
2023-08-17T10:23:32.119Z,27.37
2023-08-17T10:24:37.692Z,27.40
2023-08-17T10:25:42.652Z,27.27
2023-08-17T10:26:46.992Z,27.23
2023-08-17T10:27:53.288Z,27.17
2023-08-17T10:29:01.559Z,27.21
2023-08-17T10:30:09.496Z,27.42
2023-08-17T10:31:13.701Z,27.43
2023-08-17T10:32:17.308Z,27.29
2023-08-17T10:33:21.365Z,27.19
2023-08-17T10:34:25.288Z,27.14
2023-08-17T10:35:28.793Z,27.15
2023-08-17T10:36:33.612Z,27.21
2023-08-17T10:37:36.761Z,27.28
2023-08-17T10:38:40.311Z,27.43
2023-08-17T10:39:48.462Z,27.56
2023-08-17T10:42:37.763Z,27.70
2023-08-17T10:44:00.552Z,27.77
2023-08-17T10:45:30.248Z,27.64
2023-08-17T10:46:38.936Z,27.49
2023-08-17T10:47:42.201Z,27.42
2023-08-17T10:48:45.938Z,27.36
2023-08-17T10:50:21.685Z,27.29
2023-08-17T10:51:26.166Z,27.25
2023-08-17T10:52:36.071Z,27.29
2023-08-17T10:53:43.961Z,27.33
2023-08-17T10:54:47.022Z,27.51
2023-08-17T10:55:53.090Z,27.43
2023-08-17T10:56:56.358Z,27.34
2023-08-17T10:57:59.490Z,27.22
2023-08-17T10:59:03.350Z,27.30
2023-08-17T11:00:31.078Z,27.29
2023-08-17T11:01:40.439Z,27.17
2023-08-17T11:02:46.835Z,27.13
2023-08-17T11:04:13.978Z,27.03
2023-08-17T11:05:51.362Z,27.22
2023-08-17T11:07:05.341Z,27.28
2023-08-17T11:08:10.889Z,27.18
2023-08-17T11:09:18.578Z,27.10
2023-08-17T11:10:21.618Z,27.04
2023-08-17T11:11:25.578Z,26.87
2023-08-17T11:12:29.251Z,26.74
2023-08-17T11:13:34.803Z,26.87
2023-08-17T11:14:37.848Z,26.72
2023-08-17T11:15:45.022Z,26.58
2023-08-17T11:16:48.692Z,26.52
2023-08-17T11:17:51.640Z,26.41
2023-08-17T11:18:54.945Z,26.26
2023-08-17T11:19:57.836Z,26.20
2023-08-17T11:21:02.132Z,26.36
2023-08-17T11:22:05.274Z,26.35
2023-08-17T11:23:09.974Z,26.36
2023-08-17T11:24:13.183Z,26.32
2023-08-17T11:25:16.536Z,26.31
2023-08-17T11:26:20.623Z,26.50
2023-08-17T11:27:23.858Z,26.51
2023-08-17T11:28:26.990Z,26.65
2023-08-17T11:29:33.527Z,26.82
2023-08-17T11:30:40.447Z,26.96
2023-08-17T11:31:44.063Z,27.04
2023-08-17T11:32:47.449Z,27.12
2023-08-17T11:33:55.698Z,27.15
2023-08-17T11:35:00.156Z,27.26
2023-08-17T11:36:04.638Z,27.37
2023-08-17T11:37:07.542Z,27.46
2023-08-17T11:38:10.643Z,27.50
2023-08-17T11:39:15.452Z,27.39
2023-08-17T11:40:18.921Z,27.46
2023-08-17T11:41:22.000Z,27.47
2023-08-17T11:42:25.119Z,27.45
2023-08-17T11:43:33.339Z,27.46
2023-08-17T11:44:36.440Z,27.50
2023-08-17T11:45:40.590Z,27.47
2023-08-17T11:46:43.659Z,27.49
2023-08-17T11:47:48.835Z,27.58
2023-08-17T11:48:55.072Z,27.64
2023-08-17T11:50:10.835Z,27.81
2023-08-17T11:51:32.578Z,28.06
2023-08-17T11:52:37.879Z,28.13
2023-08-17T11:53:41.345Z,28.24
2023-08-17T11:54:45.112Z,28.24
2023-08-17T11:55:48.697Z,28.25
2023-08-17T11:56:51.778Z,28.30
2023-08-17T11:57:54.887Z,28.37
2023-08-17T11:58:57.981Z,28.41
2023-08-17T12:00:02.347Z,28.54
2023-08-17T12:01:12.009Z,28.63
2023-08-17T12:02:15.318Z,28.65
2023-08-17T12:03:20.363Z,28.81
2023-08-17T12:04:24.536Z,28.74
2023-08-17T12:05:30.622Z,28.58
2023-08-17T12:06:33.933Z,28.40
2023-08-17T12:07:37.580Z,28.31
2023-08-17T12:08:51.801Z,28.26
2023-08-17T12:09:55.228Z,28.33
2023-08-17T12:10:58.222Z,28.34
2023-08-17T12:12:02.145Z,28.22
2023-08-17T12:13:05.338Z,27.98
2023-08-17T12:14:12.816Z,27.86
2023-08-17T12:15:18.328Z,27.68
2023-08-17T12:16:23.989Z,27.56
2023-08-17T12:17:27.084Z,27.44
2023-08-17T12:18:33.521Z,27.51
2023-08-17T12:19:36.355Z,27.54
2023-08-17T12:20:42.144Z,27.60
2023-08-17T12:21:47.414Z,27.74
2023-08-17T12:22:50.508Z,27.93
2023-08-17T12:23:53.668Z,27.99
2023-08-17T12:24:57.868Z,27.97
2023-08-17T12:26:00.827Z,28.08
2023-08-17T12:27:04.764Z,28.24
2023-08-17T12:28:07.830Z,28.30
2023-08-17T12:29:11.201Z,28.39
2023-08-17T12:30:26.924Z,28.40
2023-08-17T12:31:30.843Z,28.46
2023-08-17T12:32:34.049Z,28.65
2023-08-17T12:33:37.114Z,28.90
2023-08-17T12:34:40.206Z,28.96
2023-08-17T12:35:43.408Z,28.87
2023-08-17T12:36:46.433Z,28.75
2023-08-17T12:37:49.792Z,28.64
2023-08-17T12:38:53.268Z,28.72
2023-08-17T12:39:56.396Z,28.77
2023-08-17T12:40:59.329Z,28.88
2023-08-17T12:42:02.419Z,28.98
2023-08-17T12:43:05.292Z,28.95
2023-08-17T12:44:10.820Z,28.77
2023-08-17T12:45:14.064Z,28.81
2023-08-17T12:46:17.219Z,28.83
2023-08-17T12:47:20.129Z,28.84
2023-08-17T12:48:23.190Z,28.81
2023-08-17T12:49:26.080Z,28.73
2023-08-17T12:50:29.128Z,28.67
2023-08-17T12:51:32.075Z,28.71
2023-08-17T12:52:35.738Z,28.77
2023-08-17T12:53:38.760Z,28.86
2023-08-17T12:54:41.756Z,28.76
2023-08-17T12:55:44.822Z,28.80
2023-08-17T12:56:47.926Z,28.82
2023-08-17T12:57:51.007Z,28.83
2023-08-17T12:58:53.994Z,28.72
2023-08-17T12:59:57.150Z,28.62
2023-08-17T13:01:00.206Z,28.56
2023-08-17T13:02:03.503Z,28.71
2023-08-17T13:03:06.561Z,28.77
2023-08-17T13:04:09.731Z,28.72
2023-08-17T13:05:12.798Z,28.68
2023-08-17T13:06:15.788Z,28.61
2023-08-17T13:07:19.090Z,28.50
2023-08-17T13:08:22.214Z,28.37
2023-08-17T13:09:25.182Z,28.21
2023-08-17T13:10:28.115Z,28.12
2023-08-17T13:11:31.021Z,28.06
2023-08-17T13:12:33.963Z,27.95
2023-08-17T13:13:37.489Z,27.90
2023-08-17T13:14:40.615Z,27.83
2023-08-17T13:15:43.654Z,27.83
2023-08-17T13:16:46.662Z,27.91
2023-08-17T13:17:49.689Z,27.96
2023-08-17T13:18:52.771Z,27.84
2023-08-17T13:19:55.856Z,27.75
2023-08-17T13:20:58.838Z,27.71
2023-08-17T13:22:04.124Z,27.73
2023-08-17T13:23:07.331Z,27.63
2023-08-17T13:24:10.414Z,27.58
2023-08-17T13:25:13.644Z,27.59
2023-08-17T13:26:16.587Z,27.62
2023-08-17T13:27:19.452Z,27.53
2023-08-17T13:28:22.611Z,27.44
2023-08-17T13:29:25.911Z,27.43
2023-08-17T13:30:29.179Z,27.43
2023-08-17T13:31:32.647Z,27.37
2023-08-17T13:32:35.851Z,27.17
2023-08-17T13:33:38.946Z,27.00
2023-08-17T13:34:41.965Z,26.91
2023-08-17T13:35:45.081Z,26.83
2023-08-17T13:36:47.978Z,26.76
2023-08-17T13:37:59.011Z,26.66
2023-08-17T13:39:02.135Z,26.57
2023-08-17T13:40:05.871Z,26.65
2023-08-17T13:41:08.844Z,26.66
2023-08-17T13:42:11.934Z,26.80
2023-08-17T13:43:14.919Z,26.85
2023-08-17T13:44:17.854Z,26.85
2023-08-17T13:45:20.902Z,26.88
2023-08-17T13:46:24.074Z,27.01
2023-08-17T13:47:27.356Z,27.05
2023-08-17T13:48:30.405Z,26.96
2023-08-17T13:49:33.528Z,26.92
2023-08-17T13:50:39.718Z,26.99
2023-08-17T13:51:43.025Z,27.09